Joe Foss Field Airport Sioux Falls US
ICAO: KFSD
IATA: FSD
Category: Medium
Scheduled Services: Yes

Elevation: 1429 ft
TransAlt. 18000 ft.

Airport Communications:
SIOUX FALLS APP/DEP:125.8
ATIS:126.6
CTAF:118.3
SIOUX FALLS GND:121.9
HURON RDO:122.2
SIOUX FALLS TWR:118.3
UNICOM:122.95

KFSD Zoom In..

If you have problems with the map follow the link
https://www.worldairports.se/pages/airport.php?
ICAO=KFSD

Runways:

(A) RW 03 length 8999 ft width 150 ft
ILS 109.90 / hdg 30

(B) RW 09 length 3151 ft width 75 ft
---- / hdg 98

(C) RW 15 length 8000 ft width 150 ft
---- / hdg 150

(D) RW 21 length 8999 ft width 150 ft
ILS 111.10 / hdg 210

(E) RW 27 length 3151 ft width 75 ft
---- / hdg 278

(F) RW 33 length 8000 ft width 150 ft
---- / hdg 330

Location; KFSD
Day. 10 / Time. 02.56 Zulu
* Altimeter: 29.96
* Temperature: -12° c. -10.4°f.
* Wind from: 000° Speed 00 kn.
Dewpoint: -16° c.
Visibility: 10 Statute Miles.
Clouds: Overcast 8500 ft.

KFSD 100256Z 00000KT 10SM OVC085 M12/M16 A2996 RMK AO2 SLP176 T11171156 50003 $


Wind - Calm.

 
 
jpsmedia worldairports.se 2019   terms of use